THY9521 SEGU-SEQM
Flight info
| Callsign | THY9521 |
|---|---|
| Flight time | 0h 38m |
| Altitude | 24000 |
| Route | PAMIS G675 QIT |
| Aircraft | B738/M-SDE2E3FGHIRWXY/LB1 |
Departure
| Time | 2026-04-20 18:33 |
|---|---|
| Airport | José Joaquín de Olmedo International Airport (SEGU) |
Arrival
| Time | 2026-04-20 19:11 |
|---|---|
| Airport | Mariscal Sucre International Airport (SEQM) |
| Time | Latitude | Longitude | Altitude | Speed | Heading |
|---|---|---|---|---|---|
| 2026-04-20 18:14 | -2.15000 | -79.88414 | 28 ft | 0 kts | 300° |
| 2026-04-20 18:25 | -2.15010 | -79.88395 | 28 ft | 4 kts | 296° |
| 2026-04-20 18:26 | -2.15020 | -79.88371 | 28 ft | 4 kts | 286° |
| 2026-04-20 18:26 | -2.15024 | -79.88345 | 28 ft | 4 kts | 258° |
| 2026-04-20 18:26 | -2.15019 | -79.88332 | 28 ft | 3 kts | 216° |
| 2026-04-20 18:26 | -2.15016 | -79.88329 | 28 ft | 1 kts | 210° |
| 2026-04-20 18:29 | -2.15016 | -79.88330 | 28 ft | 1 kts | 210° |
| 2026-04-20 18:29 | -2.15045 | -79.88346 | 28 ft | 10 kts | 210° |
| 2026-04-20 18:30 | -2.15136 | -79.88391 | 28 ft | 17 kts | 184° |
| 2026-04-20 18:30 | -2.15218 | -79.88302 | 28 ft | 20 kts | 119° |
| 2026-04-20 18:30 | -2.15317 | -79.88227 | 27 ft | 20 kts | 205° |
| 2026-04-20 18:30 | -2.15446 | -79.88304 | 27 ft | 23 kts | 210° |
| 2026-04-20 18:31 | -2.15588 | -79.88385 | 27 ft | 25 kts | 210° |
| 2026-04-20 18:31 | -2.15745 | -79.88476 | 27 ft | 27 kts | 210° |
| 2026-04-20 18:31 | -2.15913 | -79.88573 | 27 ft | 29 kts | 210° |
| 2026-04-20 18:31 | -2.16071 | -79.88665 | 28 ft | 27 kts | 210° |
| 2026-04-20 18:32 | -2.16242 | -79.88762 | 27 ft | 29 kts | 210° |
| 2026-04-20 18:32 | -2.16407 | -79.88858 | 27 ft | 27 kts | 210° |
| 2026-04-20 18:32 | -2.16576 | -79.88955 | 27 ft | 29 kts | 210° |
| 2026-04-20 18:32 | -2.16727 | -79.88964 | 26 ft | 17 kts | 109° |
| 2026-04-20 18:33 | -2.16641 | -79.88884 | 26 ft | 34 kts | 30° |
| 2026-04-20 18:33 | -2.16218 | -79.88641 | 28 ft | 104 kts | 30° |
| 2026-04-20 18:33 | -2.15423 | -79.88188 | 61 ft | 153 kts | 29° |
| 2026-04-20 18:33 | -2.14475 | -79.87643 | 649 ft | 157 kts | 30° |
| 2026-04-20 18:34 | -2.13533 | -79.87073 | 1295 ft | 159 kts | 32° |
| 2026-04-20 18:34 | -2.12592 | -79.86477 | 1882 ft | 168 kts | 30° |
| 2026-04-20 18:34 | -2.11491 | -79.85838 | 2176 ft | 199 kts | 31° |
| 2026-04-20 18:34 | -2.10242 | -79.85044 | 2408 ft | 225 kts | 33° |
| 2026-04-20 18:35 | -2.08854 | -79.84143 | 2644 ft | 248 kts | 33° |
| 2026-04-20 18:35 | -2.07374 | -79.83181 | 3260 ft | 257 kts | 32° |
| 2026-04-20 18:35 | -2.05880 | -79.82209 | 4117 ft | 257 kts | 32° |
| 2026-04-20 18:35 | -2.04370 | -79.81226 | 4896 ft | 260 kts | 32° |
| 2026-04-20 18:36 | -2.02845 | -79.80235 | 5686 ft | 263 kts | 32° |
| 2026-04-20 18:36 | -2.01304 | -79.79233 | 6501 ft | 266 kts | 32° |
| 2026-04-20 18:36 | -1.99745 | -79.78221 | 7273 ft | 269 kts | 32° |
| 2026-04-20 18:36 | -1.98165 | -79.77195 | 8070 ft | 272 kts | 32° |
| 2026-04-20 18:37 | -1.96587 | -79.76171 | 8869 ft | 275 kts | 32° |
| 2026-04-20 18:37 | -1.94973 | -79.75124 | 9708 ft | 278 kts | 32° |
| 2026-04-20 18:37 | -1.93330 | -79.74057 | 10356 ft | 290 kts | 32° |
| 2026-04-20 18:37 | -1.91559 | -79.72909 | 10560 ft | 316 kts | 32° |
| 2026-04-20 18:38 | -1.89678 | -79.71689 | 11073 ft | 327 kts | 32° |
| 2026-04-20 18:38 | -1.87754 | -79.70442 | 11802 ft | 332 kts | 32° |
| 2026-04-20 18:38 | -1.85807 | -79.69179 | 12569 ft | 336 kts | 32° |
| 2026-04-20 18:38 | -1.83832 | -79.67897 | 13344 ft | 340 kts | 32° |
| 2026-04-20 18:39 | -1.81832 | -79.66599 | 14065 ft | 345 kts | 32° |
| 2026-04-20 18:39 | -1.79804 | -79.65283 | 14777 ft | 349 kts | 32° |
| 2026-04-20 18:39 | -1.77754 | -79.63953 | 15503 ft | 353 kts | 32° |
| 2026-04-20 18:39 | -1.75675 | -79.62605 | 16228 ft | 358 kts | 32° |
| 2026-04-20 18:40 | -1.73605 | -79.61262 | 16951 ft | 362 kts | 32° |
| 2026-04-20 18:40 | -1.71478 | -79.59883 | 17669 ft | 366 kts | 32° |
| 2026-04-20 18:40 | -1.69323 | -79.58485 | 18357 ft | 371 kts | 32° |
| 2026-04-20 18:40 | -1.67148 | -79.57073 | 18965 ft | 375 kts | 31° |
| 2026-04-20 18:41 | -1.64947 | -79.55646 | 19563 ft | 379 kts | 32° |
| 2026-04-20 18:41 | -1.62723 | -79.54203 | 20175 ft | 383 kts | 31° |
| 2026-04-20 18:41 | -1.60477 | -79.52746 | 20771 ft | 387 kts | 31° |
| 2026-04-20 18:41 | -1.58204 | -79.51272 | 21347 ft | 391 kts | 31° |
| 2026-04-20 18:42 | -1.55914 | -79.49788 | 21955 ft | 394 kts | 31° |
| 2026-04-20 18:42 | -1.53618 | -79.48298 | 22701 ft | 392 kts | 31° |
| 2026-04-20 18:42 | -1.51364 | -79.46836 | 23461 ft | 391 kts | 31° |
| 2026-04-20 18:42 | -1.49069 | -79.45347 | 23816 ft | 392 kts | 31° |
| 2026-04-20 18:43 | -1.46786 | -79.43867 | 23955 ft | 390 kts | 31° |
| 2026-04-20 18:43 | -1.44499 | -79.42383 | 23959 ft | 391 kts | 31° |
| 2026-04-20 18:43 | -1.42220 | -79.40904 | 23982 ft | 391 kts | 31° |
| 2026-04-20 18:43 | -1.39928 | -79.39417 | 23988 ft | 391 kts | 31° |
| 2026-04-20 18:44 | -1.37672 | -79.37954 | 23992 ft | 391 kts | 31° |
| 2026-04-20 18:44 | -1.35382 | -79.36468 | 23994 ft | 392 kts | 31° |
| 2026-04-20 18:44 | -1.33089 | -79.34980 | 23996 ft | 392 kts | 31° |
| 2026-04-20 18:44 | -1.30796 | -79.33493 | 24005 ft | 392 kts | 31° |
| 2026-04-20 18:45 | -1.28505 | -79.32006 | 24006 ft | 392 kts | 31° |
| 2026-04-20 18:45 | -1.26216 | -79.30521 | 24008 ft | 392 kts | 31° |
| 2026-04-20 18:45 | -1.23962 | -79.29059 | 24014 ft | 392 kts | 31° |
| 2026-04-20 18:45 | -1.21671 | -79.27572 | 24022 ft | 391 kts | 31° |
| 2026-04-20 18:46 | -1.19386 | -79.26090 | 24026 ft | 391 kts | 31° |
| 2026-04-20 18:46 | -1.17098 | -79.24606 | 24032 ft | 391 kts | 31° |
| 2026-04-20 18:46 | -1.14817 | -79.23126 | 24034 ft | 391 kts | 31° |
| 2026-04-20 18:46 | -1.12536 | -79.21647 | 24047 ft | 390 kts | 31° |
| 2026-04-20 18:47 | -1.10259 | -79.20170 | 24050 ft | 390 kts | 31° |
| 2026-04-20 18:47 | -1.07980 | -79.18692 | 24055 ft | 390 kts | 32° |
| 2026-04-20 18:47 | -1.05701 | -79.17214 | 24064 ft | 390 kts | 31° |
| 2026-04-20 18:47 | -1.03425 | -79.15737 | 24065 ft | 390 kts | 31° |
| 2026-04-20 18:48 | -1.01178 | -79.14279 | 24066 ft | 390 kts | 31° |
| 2026-04-20 18:48 | -0.98905 | -79.12805 | 24077 ft | 390 kts | 31° |
| 2026-04-20 18:48 | -0.96629 | -79.11329 | 24080 ft | 390 kts | 31° |
| 2026-04-20 18:48 | -0.94352 | -79.09852 | 24076 ft | 391 kts | 31° |
| 2026-04-20 18:49 | -0.92065 | -79.08368 | 24088 ft | 391 kts | 31° |
| 2026-04-20 18:49 | -0.89780 | -79.06887 | 24089 ft | 391 kts | 31° |
| 2026-04-20 18:49 | -0.87497 | -79.05405 | 24089 ft | 391 kts | 31° |
| 2026-04-20 18:49 | -0.85222 | -79.03929 | 24089 ft | 390 kts | 31° |
| 2026-04-20 18:50 | -0.82950 | -79.02455 | 24097 ft | 389 kts | 31° |
| 2026-04-20 18:50 | -0.80685 | -79.00986 | 24093 ft | 387 kts | 31° |
| 2026-04-20 18:50 | -0.78428 | -78.99523 | 24108 ft | 387 kts | 31° |
| 2026-04-20 18:50 | -0.76168 | -78.98058 | 24112 ft | 387 kts | 31° |
| 2026-04-20 18:51 | -0.73906 | -78.96591 | 24120 ft | 389 kts | 32° |
| 2026-04-20 18:51 | -0.71633 | -78.95117 | 24114 ft | 390 kts | 32° |
| 2026-04-20 18:51 | -0.69351 | -78.93636 | 24113 ft | 391 kts | 32° |
| 2026-04-20 18:51 | -0.67067 | -78.92154 | 24115 ft | 391 kts | 31° |
| 2026-04-20 18:52 | -0.64806 | -78.90687 | 24121 ft | 397 kts | 31° |
| 2026-04-20 18:52 | -0.62444 | -78.89156 | 24139 ft | 411 kts | 31° |
| 2026-04-20 18:52 | -0.60007 | -78.87576 | 24139 ft | 424 kts | 32° |
| 2026-04-20 18:52 | -0.57492 | -78.85945 | 24138 ft | 436 kts | 32° |
| 2026-04-20 18:53 | -0.54909 | -78.84269 | 24134 ft | 446 kts | 32° |
| 2026-04-20 18:53 | -0.52283 | -78.82565 | 24131 ft | 455 kts | 32° |
| 2026-04-20 18:53 | -0.49607 | -78.80828 | 24132 ft | 462 kts | 32° |
| 2026-04-20 18:53 | -0.46893 | -78.79067 | 24128 ft | 468 kts | 32° |
| 2026-04-20 18:54 | -0.44146 | -78.77283 | 24120 ft | 473 kts | 32° |
| 2026-04-20 18:54 | -0.41373 | -78.75484 | 24127 ft | 478 kts | 32° |
| 2026-04-20 18:54 | -0.38562 | -78.73659 | 24114 ft | 482 kts | 32° |
| 2026-04-20 18:54 | -0.35739 | -78.71827 | 24124 ft | 484 kts | 32° |
| 2026-04-20 18:55 | -0.32907 | -78.69989 | 24113 ft | 486 kts | 32° |
| 2026-04-20 18:55 | -0.30112 | -78.68176 | 24101 ft | 485 kts | 32° |
| 2026-04-20 18:55 | -0.27303 | -78.66352 | 24133 ft | 475 kts | 32° |
| 2026-04-20 18:55 | -0.24593 | -78.64592 | 24165 ft | 453 kts | 32° |
| 2026-04-20 18:56 | -0.22016 | -78.62919 | 24212 ft | 431 kts | 32° |
| 2026-04-20 18:56 | -0.19553 | -78.61320 | 24236 ft | 413 kts | 32° |
| 2026-04-20 18:56 | -0.17159 | -78.59767 | 23962 ft | 406 kts | 32° |
| 2026-04-20 18:56 | -0.14805 | -78.58241 | 23587 ft | 401 kts | 32° |
| 2026-04-20 18:57 | -0.12476 | -78.56731 | 23162 ft | 397 kts | 32° |
| 2026-04-20 18:57 | -0.10166 | -78.55232 | 22723 ft | 393 kts | 32° |
| 2026-04-20 18:57 | -0.07911 | -78.53769 | 22299 ft | 389 kts | 32° |
| 2026-04-20 18:57 | -0.05709 | -78.52222 | 21873 ft | 387 kts | 40° |
| 2026-04-20 18:58 | -0.03900 | -78.50247 | 21476 ft | 384 kts | 54° |
| 2026-04-20 18:58 | -0.02582 | -78.47953 | 21248 ft | 377 kts | 68° |
| 2026-04-20 18:58 | -0.02047 | -78.45389 | 20590 ft | 381 kts | 94° |
| 2026-04-20 18:58 | -0.02687 | -78.42876 | 20288 ft | 372 kts | 120° |
| 2026-04-20 18:59 | -0.04310 | -78.40976 | 20238 ft | 353 kts | 144° |
| 2026-04-20 18:59 | -0.06527 | -78.39938 | 19499 ft | 356 kts | 173° |
| 2026-04-20 18:59 | -0.08927 | -78.40062 | 18986 ft | 352 kts | 199° |
| 2026-04-20 18:59 | -0.11122 | -78.41120 | 18432 ft | 351 kts | 212° |
| 2026-04-20 19:00 | -0.13205 | -78.42425 | 17814 ft | 354 kts | 213° |
| 2026-04-20 19:00 | -0.15314 | -78.43696 | 17387 ft | 350 kts | 211° |
| 2026-04-20 19:00 | -0.17379 | -78.44822 | 17385 ft | 327 kts | 208° |
| 2026-04-20 19:00 | -0.19351 | -78.45810 | 17348 ft | 308 kts | 207° |
| 2026-04-20 19:01 | -0.21221 | -78.46709 | 17316 ft | 289 kts | 207° |
| 2026-04-20 19:01 | -0.22985 | -78.47546 | 17248 ft | 274 kts | 207° |
| 2026-04-20 19:01 | -0.24704 | -78.48351 | 16927 ft | 270 kts | 205° |
| 2026-04-20 19:01 | -0.26457 | -78.48987 | 16632 ft | 266 kts | 197° |
| 2026-04-20 19:02 | -0.28252 | -78.49363 | 16357 ft | 262 kts | 189° |
| 2026-04-20 19:02 | -0.30057 | -78.49479 | 16079 ft | 257 kts | 181° |
| 2026-04-20 19:02 | -0.31838 | -78.49366 | 15818 ft | 256 kts | 174° |
| 2026-04-20 19:02 | -0.33587 | -78.49051 | 15595 ft | 253 kts | 168° |
| 2026-04-20 19:03 | -0.35267 | -78.48550 | 15293 ft | 251 kts | 161° |
| 2026-04-20 19:03 | -0.36856 | -78.47871 | 15037 ft | 246 kts | 155° |
| 2026-04-20 19:03 | -0.38305 | -78.47043 | 14837 ft | 242 kts | 148° |
| 2026-04-20 19:03 | -0.39671 | -78.46048 | 14608 ft | 244 kts | 141° |
| 2026-04-20 19:04 | -0.40925 | -78.44904 | 14373 ft | 245 kts | 135° |
| 2026-04-20 19:04 | -0.42038 | -78.43611 | 14099 ft | 248 kts | 121° |
| 2026-04-20 19:04 | -0.42479 | -78.41975 | 13774 ft | 245 kts | 84° |
| 2026-04-20 19:04 | -0.41923 | -78.40426 | 13491 ft | 235 kts | 48° |
| 2026-04-20 19:05 | -0.40690 | -78.39413 | 13190 ft | 230 kts | 27° |
| 2026-04-20 19:05 | -0.39250 | -78.38726 | 12881 ft | 227 kts | 20° |
| 2026-04-20 19:05 | -0.37806 | -78.38109 | 12611 ft | 223 kts | 21° |
| 2026-04-20 19:05 | -0.36398 | -78.37497 | 12340 ft | 218 kts | 21° |
| 2026-04-20 19:06 | -0.35028 | -78.36889 | 12103 ft | 213 kts | 22° |
| 2026-04-20 19:06 | -0.33696 | -78.36291 | 11887 ft | 206 kts | 22° |
| 2026-04-20 19:06 | -0.32420 | -78.35714 | 11651 ft | 197 kts | 22° |
| 2026-04-20 19:06 | -0.31197 | -78.35161 | 11430 ft | 188 kts | 22° |
| 2026-04-20 19:07 | -0.30013 | -78.34734 | 11151 ft | 174 kts | 5° |
| 2026-04-20 19:07 | -0.28862 | -78.34718 | 10989 ft | 169 kts | 356° |
| 2026-04-20 19:07 | -0.27748 | -78.34770 | 10885 ft | 162 kts | 355° |
| 2026-04-20 19:07 | -0.26630 | -78.34825 | 10672 ft | 158 kts | 355° |
| 2026-04-20 19:08 | -0.25538 | -78.34874 | 10441 ft | 155 kts | 354° |
| 2026-04-20 19:08 | -0.23355 | -78.34972 | 9984 ft | 155 kts | 355° |
| 2026-04-20 19:08 | -0.22273 | -78.35018 | 9738 ft | 157 kts | 355° |
| 2026-04-20 19:09 | -0.21170 | -78.35065 | 9510 ft | 158 kts | 354° |
| 2026-04-20 19:09 | -0.20086 | -78.35112 | 9260 ft | 155 kts | 354° |
| 2026-04-20 19:09 | -0.19030 | -78.35158 | 9079 ft | 151 kts | 355° |
| 2026-04-20 19:09 | -0.18333 | -78.35188 | 8907 ft | 150 kts | 354° |
| 2026-04-20 19:10 | -0.17828 | -78.35210 | 8824 ft | 153 kts | 354° |
| 2026-04-20 19:10 | -0.16757 | -78.35255 | 8562 ft | 153 kts | 355° |
| 2026-04-20 19:10 | -0.15703 | -78.35300 | 8284 ft | 152 kts | 356° |
| 2026-04-20 19:10 | -0.14656 | -78.35352 | 8020 ft | 149 kts | 357° |
| 2026-04-20 19:11 | -0.13656 | -78.35402 | 7898 ft | 134 kts | 358° |
| 2026-04-20 19:11 | -0.12848 | -78.35432 | 7863 ft | 95 kts | 358° |
| 2026-04-20 19:11 | -0.12333 | -78.35448 | 7840 ft | 53 kts | 357° |
| 2026-04-20 19:11 | -0.12091 | -78.35461 | 7828 ft | 27 kts | 356° |
| 2026-04-20 19:12 | -0.11911 | -78.35471 | 7822 ft | 25 kts | 357° |
| 2026-04-20 19:12 | -0.11749 | -78.35506 | 7819 ft | 23 kts | 336° |
| 2026-04-20 19:12 | -0.11618 | -78.35592 | 7814 ft | 22 kts | 302° |
| 2026-04-20 19:12 | -0.11629 | -78.35649 | 7814 ft | 6 kts | 189° |
| 2026-04-20 19:13 | -0.11680 | -78.35644 | 7816 ft | 9 kts | 175° |
| 2026-04-20 19:13 | -0.11756 | -78.35640 | 7819 ft | 13 kts | 178° |
| 2026-04-20 19:13 | -0.11859 | -78.35636 | 7820 ft | 17 kts | 178° |
| 2026-04-20 19:13 | -0.11982 | -78.35631 | 7829 ft | 19 kts | 176° |
| 2026-04-20 19:14 | -0.12119 | -78.35625 | 7837 ft | 20 kts | 178° |
| 2026-04-20 19:14 | -0.12273 | -78.35619 | 7840 ft | 24 kts | 178° |
| 2026-04-20 19:14 | -0.12356 | -78.35644 | 7835 ft | 1 kts | 246° |
| 2026-04-20 19:14 | -0.12362 | -78.35665 | 7836 ft | 6 kts | 239° |
| 2026-04-20 19:15 | -0.12414 | -78.35674 | 7841 ft | 11 kts | 177° |
| 2026-04-20 19:15 | -0.12502 | -78.35671 | 7841 ft | 13 kts | 178° |
| 2026-04-20 19:15 | -0.12532 | -78.35679 | 7841 ft | 2 kts | 235° |
| 2026-04-20 19:15 | -0.12537 | -78.35714 | 7841 ft | 7 kts | 268° |
| 2026-04-20 19:16 | -0.12537 | -78.35725 | 7841 ft | 0 kts | 268° |